createdAt,value
2023-02-08T00:01:29.312Z,13.17
2023-02-08T00:03:58.950Z,15.17
2023-02-08T00:06:26.979Z,15.37
2023-02-08T00:08:57.163Z,13.77
2023-02-08T00:11:25.602Z,16.47
2023-02-08T00:13:54.117Z,12.33
2023-02-08T00:16:22.445Z,20.03
2023-02-08T00:18:50.459Z,13.07
2023-02-08T00:21:19.483Z,15.07
2023-02-08T00:23:49.516Z,16.00
2023-02-08T00:26:18.174Z,16.57
2023-02-08T00:28:46.543Z,16.30
2023-02-08T00:31:14.762Z,13.87
2023-02-08T00:33:43.187Z,14.57
2023-02-08T00:36:11.818Z,11.13
2023-02-08T00:38:40.646Z,18.43
2023-02-08T00:41:11.632Z,18.10
2023-02-08T00:43:40.103Z,18.00
2023-02-08T00:46:10.973Z,17.40
2023-02-08T00:48:39.135Z,14.73
2023-02-08T00:51:13.854Z,15.27
2023-02-08T00:53:44.428Z,14.67
2023-02-08T00:56:18.680Z,11.13
2023-02-08T00:58:50.059Z,17.13
2023-02-08T01:01:18.763Z,19.87
2023-02-08T01:03:48.242Z,14.83
2023-02-08T01:06:18.419Z,16.63
2023-02-08T01:08:47.688Z,15.87
2023-02-08T01:11:30.942Z,12.90
2023-02-08T01:13:59.937Z,17.20
2023-02-08T01:16:32.737Z,21.10
2023-02-08T01:19:02.735Z,22.67
2023-02-08T01:21:35.165Z,14.70
2023-02-08T01:24:05.334Z,16.57
2023-02-08T01:26:33.712Z,10.93
2023-02-08T01:29:02.302Z,15.47
2023-02-08T01:31:37.408Z,19.37
2023-02-08T01:34:09.419Z,15.03
2023-02-08T01:36:39.711Z,21.77
2023-02-08T01:39:08.631Z,18.60
2023-02-08T01:41:39.935Z,20.87
2023-02-08T01:44:14.128Z,20.77
2023-02-08T01:46:45.946Z,19.40
2023-02-08T01:49:20.125Z,18.47
2023-02-08T01:51:59.958Z,21.23
2023-02-08T01:54:31.583Z,21.07
2023-02-08T01:57:00.537Z,18.23
2023-02-08T01:59:45.571Z,29.60
2023-02-08T02:02:17.381Z,19.10
2023-02-08T02:04:45.775Z,16.13
2023-02-08T02:07:14.273Z,22.37
2023-02-08T02:09:50.562Z,17.87
2023-02-08T02:12:18.768Z,20.30
2023-02-08T02:14:47.350Z,13.87
2023-02-08T02:17:18.281Z,21.37
2023-02-08T02:19:57.695Z,24.50
2023-02-08T02:22:31.600Z,22.87
2023-02-08T02:25:18.806Z,22.63
2023-02-08T02:28:26.097Z,24.27
2023-02-08T02:31:20.815Z,17.90
2023-02-08T02:34:03.843Z,19.63
2023-02-08T02:36:52.575Z,20.37
2023-02-08T02:39:52.164Z,21.27
2023-02-08T02:42:41.635Z,18.23
2023-02-08T02:45:09.911Z,22.17
2023-02-08T02:47:49.832Z,23.10
2023-02-08T02:50:27.816Z,27.23
2023-02-08T02:53:03.300Z,27.10
2023-02-08T02:55:35.754Z,31.60
2023-02-08T02:58:06.206Z,21.93
2023-02-08T03:00:35.467Z,11.77
2023-02-08T03:03:04.731Z,25.20
2023-02-08T03:05:35.934Z,24.30
2023-02-08T03:08:49.286Z,22.97
2023-02-08T03:11:35.368Z,27.33
2023-02-08T03:14:35.611Z,25.77
2023-02-08T03:17:18.485Z,23.30
2023-02-08T03:19:57.253Z,29.97
2023-02-08T03:22:46.561Z,20.87
2023-02-08T03:25:21.880Z,23.40
2023-02-08T03:28:11.647Z,22.67
2023-02-08T03:30:46.283Z,26.50
2023-02-08T03:33:21.056Z,20.30
2023-02-08T03:35:52.453Z,35.77
2023-02-08T03:38:25.630Z,32.70
2023-02-08T03:40:55.453Z,30.47
2023-02-08T03:43:34.335Z,29.80
2023-02-08T03:46:20.567Z,26.20
2023-02-08T03:48:54.619Z,25.30
2023-02-08T03:51:25.617Z,21.70
2023-02-08T03:53:55.074Z,27.77
2023-02-08T03:56:36.306Z,24.83
2023-02-08T03:59:08.226Z,27.43
2023-02-08T04:01:46.377Z,26.03
2023-02-08T04:04:16.183Z,28.70
2023-02-08T04:06:44.486Z,36.03
2023-02-08T04:09:12.599Z,33.13
2023-02-08T04:11:44.671Z,20.40
2023-02-08T04:14:13.291Z,26.70
2023-02-08T04:16:41.488Z,34.03
2023-02-08T04:19:10.409Z,20.90
2023-02-08T04:21:39.186Z,23.43
2023-02-08T04:24:09.488Z,22.57
2023-02-08T04:26:37.651Z,21.60
2023-02-08T04:33:24.327Z,24.47
2023-02-08T04:35:52.883Z,25.97
2023-02-08T04:38:20.802Z,25.23
2023-02-08T04:40:48.824Z,34.10
2023-02-08T04:43:17.155Z,24.07
2023-02-08T04:45:45.463Z,23.13
2023-02-08T04:48:13.769Z,23.83
2023-02-08T04:50:43.434Z,18.40
2023-02-08T04:53:11.682Z,15.77
2023-02-08T04:55:40.284Z,22.33
2023-02-08T04:58:09.440Z,26.43
2023-02-08T05:00:37.665Z,19.63
2023-02-08T05:03:07.223Z,25.43
2023-02-08T05:05:35.959Z,27.23
2023-02-08T05:08:04.372Z,25.50
2023-02-08T05:10:32.804Z,28.23
2023-02-08T05:13:01.534Z,26.30
2023-02-08T05:15:30.007Z,19.27
2023-02-08T05:17:57.933Z,13.87
2023-02-08T05:20:25.840Z,19.13
2023-02-08T05:22:54.133Z,18.23
2023-02-08T05:25:22.075Z,25.90
2023-02-08T05:27:50.224Z,20.87
2023-02-08T05:30:18.348Z,26.13
2023-02-08T05:32:47.243Z,27.40
2023-02-08T05:35:15.557Z,22.83
2023-02-08T05:37:43.652Z,27.50
2023-02-08T05:40:13.513Z,23.07
2023-02-08T05:42:42.735Z,18.00
2023-02-08T05:45:10.725Z,21.10
2023-02-08T05:47:39.255Z,22.57
2023-02-08T05:50:07.826Z,30.33
2023-02-08T05:52:36.224Z,20.43
2023-02-08T05:55:04.602Z,19.77
2023-02-08T05:57:35.874Z,20.60
2023-02-08T06:00:07.395Z,23.47
2023-02-08T06:02:35.517Z,23.83
2023-02-08T06:05:04.075Z,19.07
2023-02-08T06:07:32.559Z,23.67
2023-02-08T06:10:00.786Z,27.13
2023-02-08T06:12:30.881Z,26.63
2023-02-08T06:15:02.424Z,24.93
2023-02-08T06:17:31.342Z,20.10
2023-02-08T06:19:59.485Z,18.27
2023-02-08T06:22:29.870Z,28.17
2023-02-08T06:24:57.993Z,27.30
2023-02-08T06:27:26.687Z,27.90
2023-02-08T06:29:55.267Z,27.90
2023-02-08T06:32:23.323Z,21.57
2023-02-08T06:34:51.725Z,31.67
2023-02-08T06:37:19.962Z,21.70
2023-02-08T06:39:48.275Z,20.60
2023-02-08T06:42:16.555Z,24.00
2023-02-08T06:44:54.444Z,18.93
2023-02-08T06:47:25.443Z,21.23
2023-02-08T06:49:55.810Z,19.93
2023-02-08T06:52:23.633Z,22.67
2023-02-08T06:54:52.170Z,16.27
2023-02-08T06:57:20.510Z,18.23
2023-02-08T06:59:49.350Z,21.03
2023-02-08T07:02:20.724Z,23.33
2023-02-08T07:04:49.232Z,19.13
2023-02-08T07:07:18.173Z,15.57
2023-02-08T07:09:46.508Z,24.50
2023-02-08T07:12:14.603Z,21.60
2023-02-08T07:14:43.937Z,19.57
2023-02-08T07:17:14.896Z,23.20
2023-02-08T07:19:43.119Z,24.07
2023-02-08T07:22:11.613Z,23.60
2023-02-08T07:24:41.600Z,18.53
2023-02-08T07:27:15.175Z,18.57
2023-02-08T07:29:45.455Z,21.53
2023-02-08T07:32:14.092Z,25.70
2023-02-08T07:34:42.700Z,25.27
2023-02-08T07:37:11.055Z,26.57
2023-02-08T07:39:40.339Z,14.27
2023-02-08T07:42:11.581Z,14.50
2023-02-08T07:44:40.259Z,21.93
2023-02-08T07:47:09.642Z,19.17
2023-02-08T07:49:38.098Z,21.37
2023-02-08T08:04:38.279Z,24.67
2023-02-08T08:07:07.851Z,20.50
2023-02-08T08:09:38.584Z,16.20
2023-02-08T08:12:09.970Z,19.53
2023-02-08T08:14:39.624Z,19.57
2023-02-08T08:17:08.714Z,33.63
2023-02-08T08:19:37.572Z,22.83
2023-02-08T08:22:09.102Z,20.03
2023-02-08T08:24:38.277Z,14.23
2023-02-08T08:27:09.148Z,15.47
2023-02-08T08:29:39.978Z,19.03
2023-02-08T08:32:10.300Z,19.20
2023-02-08T08:34:42.306Z,17.13
2023-02-08T08:37:11.372Z,19.93
2023-02-08T08:39:39.705Z,17.83
2023-02-08T08:42:07.946Z,21.37
2023-02-08T08:44:38.437Z,19.00
2023-02-08T08:47:06.762Z,14.57
2023-02-08T08:49:34.651Z,17.37
2023-02-08T08:52:02.648Z,18.43
2023-02-08T08:54:30.763Z,13.50
2023-02-08T08:56:59.026Z,29.70
2023-02-08T08:59:27.937Z,17.93
2023-02-08T09:01:57.195Z,19.87
2023-02-08T09:04:56.690Z,16.13
2023-02-08T09:07:16.129Z,16.73
2023-02-08T09:09:48.423Z,18.73
2023-02-08T09:12:19.217Z,24.23
2023-02-08T09:14:47.403Z,15.07
2023-02-08T09:17:15.535Z,13.80
2023-02-08T09:19:44.221Z,10.93
2023-02-08T09:22:13.635Z,13.37
2023-02-08T09:24:42.524Z,13.47
2023-02-08T09:27:14.558Z,16.00
2023-02-08T09:29:42.843Z,16.83
2023-02-08T09:32:11.292Z,19.23
2023-02-08T09:34:39.887Z,13.33
2023-02-08T09:37:08.453Z,16.07
2023-02-08T09:39:37.143Z,10.97
2023-02-08T09:42:29.358Z,12.50
2023-02-08T09:45:10.320Z,21.83
2023-02-08T09:47:44.463Z,13.17
2023-02-08T09:50:21.920Z,15.53
2023-02-08T09:53:13.848Z,11.83
2023-02-08T09:55:52.090Z,14.67
2023-02-08T09:58:35.615Z,11.83
2023-02-08T10:01:08.011Z,13.43
2023-02-08T10:03:43.476Z,17.25
2023-02-08T10:06:17.859Z,13.37
2023-02-08T10:08:52.343Z,16.10
2023-02-08T10:11:35.892Z,17.37
2023-02-08T10:14:11.765Z,11.57
2023-02-08T10:16:53.677Z,13.27
2023-02-08T10:19:38.150Z,13.83
2023-02-08T10:22:25.141Z,12.03
2023-02-08T10:25:12.378Z,9.70
2023-02-08T10:28:08.669Z,14.10
2023-02-08T10:30:50.909Z,7.57
2023-02-08T10:33:43.331Z,13.07
2023-02-08T10:36:24.601Z,12.17
2023-02-08T10:38:55.883Z,9.43
2023-02-08T10:41:28.990Z,13.23
2023-02-08T10:44:05.429Z,10.37
2023-02-08T10:47:05.652Z,12.63
2023-02-08T10:50:02.934Z,14.03
2023-02-08T10:52:33.684Z,11.83
2023-02-08T10:55:08.260Z,10.43
2023-02-08T10:57:36.677Z,14.60
2023-02-08T11:00:08.134Z,18.53
2023-02-08T11:02:43.001Z,13.63
2023-02-08T11:05:13.000Z,15.43
2023-02-08T11:07:42.148Z,15.47
2023-02-08T11:10:21.642Z,11.93
2023-02-08T11:13:06.205Z,11.80
2023-02-08T11:15:57.660Z,22.07
2023-02-08T11:18:31.411Z,14.30
2023-02-08T11:21:02.876Z,18.10
2023-02-08T11:23:33.193Z,15.03
2023-02-08T11:26:25.247Z,24.43
2023-02-08T11:29:15.986Z,16.43
2023-02-08T11:31:58.864Z,15.85
2023-02-08T11:34:39.812Z,12.13
2023-02-08T11:37:26.936Z,17.03
2023-02-08T11:39:59.279Z,12.40
2023-02-08T11:42:37.502Z,11.97
2023-02-08T11:45:06.660Z,14.57
2023-02-08T11:47:37.781Z,19.47
2023-02-08T11:50:08.281Z,14.90
2023-02-08T11:52:43.718Z,15.63
2023-02-08T11:55:32.996Z,15.70
2023-02-08T11:58:13.519Z,15.80
2023-02-08T12:01:02.220Z,16.93
2023-02-08T12:03:51.128Z,15.47
2023-02-08T12:06:40.759Z,15.97
2023-02-08T12:09:54.549Z,17.67
2023-02-08T12:12:48.538Z,26.67
2023-02-08T12:15:58.754Z,15.03
2023-02-08T12:18:45.056Z,14.43
2023-02-08T12:21:26.369Z,12.93
2023-02-08T12:24:05.925Z,12.63
2023-02-08T12:26:44.118Z,11.77
2023-02-08T12:29:12.689Z,11.10
2023-02-08T12:31:40.754Z,14.53
2023-02-08T12:34:25.163Z,11.47
2023-02-08T12:37:26.862Z,11.20
2023-02-08T12:40:50.860Z,13.53
2023-02-08T12:43:33.218Z,14.23
2023-02-08T12:46:04.571Z,11.40
2023-02-08T12:49:11.565Z,13.10
2023-02-08T12:51:56.969Z,13.93
2023-02-08T12:54:38.739Z,16.03
2023-02-08T12:57:07.736Z,11.53
2023-02-08T12:59:54.934Z,13.77
2023-02-08T13:02:30.664Z,10.30
2023-02-08T13:05:01.810Z,12.50
2023-02-08T13:07:41.135Z,9.87
2023-02-08T13:10:31.606Z,18.93
2023-02-08T13:13:08.998Z,13.37
2023-02-08T13:15:46.313Z,12.43
2023-02-08T13:18:21.782Z,13.33
2023-02-08T13:21:03.500Z,12.17
2023-02-08T13:23:57.810Z,15.83
2023-02-08T13:26:32.408Z,13.93
2023-02-08T13:29:05.097Z,12.13
2023-02-08T13:31:49.230Z,9.57
2023-02-08T13:34:37.238Z,12.57
2023-02-08T13:37:24.820Z,9.77
2023-02-08T13:40:04.505Z,12.17
2023-02-08T13:42:45.565Z,9.77
2023-02-08T13:45:26.131Z,10.33
2023-02-08T13:48:20.818Z,11.80
2023-02-08T13:50:53.891Z,12.80
2023-02-08T13:53:39.990Z,10.20
2023-02-08T13:56:13.176Z,17.57
2023-02-08T13:58:50.872Z,15.57
2023-02-08T14:01:28.270Z,17.57
2023-02-08T14:04:15.809Z,13.17
2023-02-08T14:06:47.378Z,11.07
2023-02-08T14:09:38.218Z,11.60
2023-02-08T14:12:14.689Z,12.10
2023-02-08T14:14:42.623Z,16.90
2023-02-08T14:17:20.887Z,17.17
2023-02-08T14:19:58.571Z,15.27
2023-02-08T14:22:36.185Z,10.70
2023-02-08T14:25:18.268Z,7.80
2023-02-08T14:28:03.503Z,15.00
2023-02-08T14:30:39.308Z,9.77
2023-02-08T14:33:13.069Z,10.93
2023-02-08T14:35:44.053Z,13.37
2023-02-08T14:38:24.298Z,7.33
2023-02-08T14:41:00.646Z,11.47
2023-02-08T14:43:49.790Z,10.37
2023-02-08T14:46:39.508Z,12.23
2023-02-08T14:49:14.655Z,13.30
2023-02-08T14:52:04.843Z,10.00
2023-02-08T14:54:49.175Z,14.50
2023-02-08T14:57:24.494Z,11.30
2023-02-08T14:59:57.244Z,10.77
2023-02-08T15:02:31.820Z,11.73
2023-02-08T15:05:09.971Z,13.27
2023-02-08T15:08:07.640Z,12.60
2023-02-08T15:10:42.490Z,16.43
2023-02-08T15:13:31.080Z,13.50
2023-02-08T15:16:00.656Z,12.87
2023-02-08T15:18:31.936Z,13.83
2023-02-08T15:21:06.968Z,15.57
2023-02-08T15:23:36.281Z,14.27
2023-02-08T15:26:22.545Z,15.63
2023-02-08T15:28:52.083Z,18.73
2023-02-08T15:31:32.393Z,15.00
2023-02-08T15:34:02.001Z,19.02
2023-02-08T15:36:33.241Z,13.13
2023-02-08T15:39:27.291Z,15.70
2023-02-08T15:41:59.971Z,13.30
2023-02-08T15:44:30.832Z,15.40
2023-02-08T15:47:05.016Z,14.30
2023-02-08T15:49:38.574Z,12.83
2023-02-08T15:52:07.969Z,11.33
2023-02-08T15:54:35.927Z,10.50
2023-02-08T15:57:10.256Z,12.83
2023-02-08T15:59:40.481Z,9.93
2023-02-08T16:02:31.507Z,13.50
2023-02-08T16:05:01.110Z,16.73
2023-02-08T16:07:39.056Z,20.30
2023-02-08T16:10:10.874Z,17.33
2023-02-08T16:12:39.372Z,14.63
2023-02-08T16:15:53.691Z,15.83
2023-02-08T16:18:41.033Z,22.93
2023-02-08T16:21:20.319Z,18.23
2023-02-08T16:24:16.324Z,20.23
2023-02-08T16:26:50.112Z,16.93
2023-02-08T16:29:22.032Z,19.30
2023-02-08T16:32:01.362Z,20.43
2023-02-08T16:34:36.619Z,17.67
2023-02-08T16:37:07.672Z,18.07
2023-02-08T16:39:36.610Z,18.70
2023-02-08T16:42:16.307Z,17.13
2023-02-08T16:45:15.182Z,20.07
2023-02-08T16:47:49.816Z,20.53
2023-02-08T16:50:28.339Z,19.77
2023-02-08T17:04:03.359Z,22.37
2023-02-08T17:06:36.706Z,25.73
2023-02-08T17:09:06.566Z,24.00
2023-02-08T17:11:35.401Z,24.63
2023-02-08T17:14:05.488Z,28.00
2023-02-08T17:16:35.602Z,25.13
2023-02-08T17:19:04.849Z,34.40
2023-02-08T17:21:33.429Z,31.67
2023-02-08T17:24:02.432Z,29.83
2023-02-08T17:26:40.745Z,26.77
2023-02-08T17:29:09.294Z,23.07
2023-02-08T17:31:45.294Z,26.67
2023-02-08T17:34:14.105Z,26.97
2023-02-08T17:36:43.050Z,31.23
2023-02-08T17:39:12.421Z,31.60
2023-02-08T17:41:40.854Z,30.53
2023-02-08T17:44:09.108Z,31.27
2023-02-08T17:46:38.150Z,29.20
2023-02-08T17:49:06.386Z,27.30
2023-02-08T17:51:36.130Z,23.53
2023-02-08T17:54:05.578Z,29.93
2023-02-08T17:56:36.345Z,30.83
2023-02-08T17:59:05.869Z,38.70
2023-02-08T18:01:35.449Z,30.63
2023-02-08T18:04:03.880Z,24.13
2023-02-08T18:06:32.601Z,29.93
2023-02-08T18:09:01.759Z,27.53
2023-02-08T18:11:31.633Z,25.10
2023-02-08T18:14:00.321Z,29.97
2023-02-08T18:16:31.195Z,32.40
2023-02-08T18:19:01.569Z,27.43
2023-02-08T18:21:34.097Z,18.87
2023-02-08T18:24:04.673Z,29.20
2023-02-08T18:26:34.832Z,32.23
2023-02-08T18:29:04.119Z,28.70
2023-02-08T18:31:33.166Z,29.87
2023-02-08T18:34:02.159Z,26.60
2023-02-08T18:36:31.063Z,32.07
2023-02-08T18:39:00.178Z,29.53
2023-02-08T18:41:30.378Z,34.53
2023-02-08T18:43:59.477Z,37.57
2023-02-08T18:46:30.950Z,30.13
2023-02-08T18:49:01.021Z,32.57
2023-02-08T18:51:31.509Z,34.20
2023-02-08T18:54:00.425Z,33.90
2023-02-08T18:56:29.697Z,40.63
2023-02-08T18:59:01.107Z,35.27
2023-02-08T19:01:29.919Z,47.60
2023-02-08T19:04:00.127Z,47.63
2023-02-08T19:06:31.898Z,40.67
2023-02-08T19:09:02.045Z,43.37
2023-02-08T19:11:34.588Z,35.87
2023-02-08T19:14:05.400Z,38.10
2023-02-08T19:16:36.386Z,39.10
2023-02-08T19:19:06.289Z,37.17
2023-02-08T19:21:35.051Z,38.27
2023-02-08T19:24:28.429Z,43.57
2023-02-08T19:26:57.152Z,38.33
2023-02-08T19:29:25.136Z,39.90
2023-02-08T19:31:53.358Z,38.17
2023-02-08T19:34:24.311Z,40.63
2023-02-08T19:36:54.652Z,38.20
2023-02-08T19:39:25.391Z,29.50
2023-02-08T19:41:55.314Z,30.80
2023-02-08T19:44:23.754Z,32.83
2023-02-08T19:46:54.081Z,35.70
2023-02-08T19:49:23.515Z,36.60
2023-02-08T19:51:53.273Z,31.83
2023-02-08T19:54:25.032Z,31.70
2023-02-08T19:56:55.128Z,33.53
2023-02-08T19:59:26.430Z,27.60
2023-02-08T20:01:57.340Z,28.13
2023-02-08T20:04:25.981Z,32.37
2023-02-08T20:06:55.611Z,28.40
2023-02-08T20:09:24.506Z,32.33
2023-02-08T20:11:57.474Z,29.60
2023-02-08T20:14:33.409Z,31.73
2023-02-08T20:17:02.482Z,33.87
2023-02-08T20:19:31.814Z,35.27
2023-02-08T20:21:59.995Z,29.90
2023-02-08T20:24:32.075Z,33.47
2023-02-08T20:27:00.449Z,33.07
2023-02-08T20:29:30.921Z,38.03
2023-02-08T20:31:59.872Z,33.87
2023-02-08T20:34:29.031Z,26.00
2023-02-08T20:37:12.660Z,33.10
2023-02-08T20:39:43.810Z,33.50
2023-02-08T20:42:12.671Z,32.70
2023-02-08T20:44:44.288Z,31.03
2023-02-08T20:47:19.542Z,36.53
2023-02-08T20:49:51.161Z,31.20
2023-02-08T20:52:19.204Z,30.20
2023-02-08T20:54:48.282Z,29.00
2023-02-08T20:57:18.687Z,32.40
2023-02-08T20:59:51.138Z,38.83
2023-02-08T21:02:23.293Z,27.53
2023-02-08T21:04:54.619Z,23.20
2023-02-08T21:07:22.758Z,31.10
2023-02-08T21:09:51.219Z,34.17
2023-02-08T21:12:21.164Z,31.10
2023-02-08T21:14:50.139Z,31.57
2023-02-08T21:17:18.836Z,33.27
2023-02-08T21:19:48.005Z,33.83
2023-02-08T21:22:17.448Z,33.63
2023-02-08T21:24:45.675Z,35.50
2023-02-08T21:27:13.862Z,34.37
2023-02-08T21:29:42.534Z,33.77
2023-02-08T21:32:10.967Z,31.50
2023-02-08T21:34:40.683Z,40.20
2023-02-08T21:37:09.321Z,33.07
2023-02-08T21:39:38.559Z,36.73
2023-02-08T21:42:06.675Z,31.23
2023-02-08T21:44:36.178Z,34.47
2023-02-08T21:47:04.278Z,32.77
2023-02-08T21:49:50.952Z,37.67
2023-02-08T21:52:37.822Z,41.27
2023-02-08T21:55:06.750Z,38.30
2023-02-08T21:57:40.359Z,36.30
2023-02-08T22:00:10.784Z,34.13
2023-02-08T22:02:39.832Z,35.63
2023-02-08T22:05:08.745Z,30.07
2023-02-08T22:07:48.608Z,32.47
2023-02-08T22:10:20.250Z,37.87
2023-02-08T22:12:49.457Z,37.23
2023-02-08T22:15:23.091Z,36.40
2023-02-08T22:18:00.022Z,32.50
2023-02-08T22:21:02.094Z,36.73
2023-02-08T22:23:31.048Z,41.90
2023-02-08T22:25:59.615Z,36.43
2023-02-08T22:31:15.755Z,35.53
2023-02-08T22:33:45.185Z,37.90
2023-02-08T22:36:14.112Z,42.00
2023-02-08T22:38:43.216Z,39.93
2023-02-08T22:41:16.143Z,36.80
2023-02-08T22:43:44.941Z,35.70
2023-02-08T22:46:13.922Z,40.57
2023-02-08T22:48:42.928Z,36.93
2023-02-08T22:51:17.385Z,39.70
2023-02-08T22:53:45.660Z,36.67
2023-02-08T22:56:15.346Z,25.53
2023-02-08T22:58:44.019Z,37.63
2023-02-08T23:01:14.795Z,29.10
2023-02-08T23:03:43.908Z,33.63
2023-02-08T23:06:16.619Z,34.53
2023-02-08T23:08:45.478Z,36.00
2023-02-08T23:11:14.874Z,36.13
2023-02-08T23:13:42.772Z,30.37
2023-02-08T23:16:15.984Z,36.63
2023-02-08T23:18:45.507Z,26.53
2023-02-08T23:21:17.889Z,38.63
2023-02-08T23:23:48.421Z,36.70
2023-02-08T23:26:19.298Z,37.57
2023-02-08T23:28:47.634Z,37.07
2023-02-08T23:31:16.135Z,35.53
2023-02-08T23:33:44.458Z,42.07
2023-02-08T23:36:17.968Z,33.27
2023-02-08T23:38:46.594Z,35.20
2023-02-08T23:41:18.810Z,40.13
2023-02-08T23:43:47.335Z,27.87
2023-02-08T23:46:21.639Z,33.00
2023-02-08T23:48:50.644Z,39.90
2023-02-08T23:51:21.222Z,27.27
2023-02-08T23:53:51.274Z,30.53
2023-02-08T23:56:23.145Z,32.03
2023-02-08T23:58:54.721Z,32.77
